sensor_id;sensor_type;location;lat;lon;timestamp;pressure;altitude;pressure_sealevel;temperature;humidity
6423;BME280;3244;42.708;23.288;2023-03-14T00:01:48;95279.66;;;4.24;55.90
6423;BME280;3244;42.708;23.288;2023-03-14T00:04:15;95278.78;;;4.33;54.74
6423;BME280;3244;42.708;23.288;2023-03-14T00:06:42;95270.25;;;4.52;55.32
6423;BME280;3244;42.708;23.288;2023-03-14T00:09:09;95268.53;;;4.57;54.31
6423;BME280;3244;42.708;23.288;2023-03-14T00:11:35;95267.81;;;4.41;53.42
6423;BME280;3244;42.708;23.288;2023-03-14T00:14:02;95262.03;;;4.27;52.89
6423;BME280;3244;42.708;23.288;2023-03-14T00:16:30;95257.06;;;4.17;52.27
6423;BME280;3244;42.708;23.288;2023-03-14T00:18:58;95258.78;;;4.12;52.51
6423;BME280;3244;42.708;23.288;2023-03-14T00:21:25;95253.75;;;4.12;52.95
6423;BME280;3244;42.708;23.288;2023-03-14T00:23:51;95256.28;;;4.10;52.67
6423;BME280;3244;42.708;23.288;2023-03-14T00:26:20;95248.75;;;4.05;52.80
6423;BME280;3244;42.708;23.288;2023-03-14T00:28:50;95242.06;;;4.01;52.91
6423;BME280;3244;42.708;23.288;2023-03-14T00:31:17;95234.56;;;3.95;53.05
6423;BME280;3244;42.708;23.288;2023-03-14T00:33:45;95233.63;;;4.12;53.00
6423;BME280;3244;42.708;23.288;2023-03-14T00:36:14;95236.19;;;3.98;53.15
6423;BME280;3244;42.708;23.288;2023-03-14T00:38:42;95235.38;;;3.97;52.79
6423;BME280;3244;42.708;23.288;2023-03-14T00:41:11;95230.31;;;4.03;52.69
6423;BME280;3244;42.708;23.288;2023-03-14T00:43:38;95231.13;;;4.12;52.95
6423;BME280;3244;42.708;23.288;2023-03-14T00:46:05;95233.63;;;4.12;53.11
6423;BME280;3244;42.708;23.288;2023-03-14T00:48:32;95226.97;;;3.98;52.94
6423;BME280;3244;42.708;23.288;2023-03-14T00:51:00;95224.53;;;3.91;53.52
6423;BME280;3244;42.708;23.288;2023-03-14T00:53:27;95222.00;;;3.92;53.33
6423;BME280;3244;42.708;23.288;2023-03-14T00:55:54;95224.47;;;3.98;53.76
6423;BME280;3244;42.708;23.288;2023-03-14T00:58:20;95223.59;;;4.08;53.85
6423;BME280;3244;42.708;23.288;2023-03-14T01:00:47;95210.22;;;4.00;53.63
6423;BME280;3244;42.708;23.288;2023-03-14T01:03:14;95206.94;;;3.89;54.02
6423;BME280;3244;42.708;23.288;2023-03-14T01:05:41;95213.56;;;3.99;54.29
6423;BME280;3244;42.708;23.288;2023-03-14T01:08:09;95217.75;;;4.02;54.13
6423;BME280;3244;42.708;23.288;2023-03-14T01:10:38;95214.34;;;4.10;54.17
6423;BME280;3244;42.708;23.288;2023-03-14T01:13:04;95216.03;;;4.12;54.59
6423;BME280;3244;42.708;23.288;2023-03-14T01:15:31;95214.34;;;4.10;54.96
6423;BME280;3244;42.708;23.288;2023-03-14T01:17:58;95203.44;;;4.12;55.39
6423;BME280;3244;42.708;23.288;2023-03-14T01:20:25;95198.44;;;4.07;56.28
6423;BME280;3244;42.708;23.288;2023-03-14T01:22:51;95198.44;;;4.05;56.25
6423;BME280;3244;42.708;23.288;2023-03-14T01:25:19;95195.09;;;4.06;56.22
6423;BME280;3244;42.708;23.288;2023-03-14T01:27:46;95192.63;;;3.99;56.53
6423;BME280;3244;42.708;23.288;2023-03-14T01:30:13;95188.53;;;3.84;56.90
6423;BME280;3244;42.708;23.288;2023-03-14T01:32:40;95186.91;;;3.74;57.32
6423;BME280;3244;42.708;23.288;2023-03-14T01:35:07;95181.94;;;3.63;57.61
6423;BME280;3244;42.708;23.288;2023-03-14T01:37:34;95179.44;;;3.63;57.76
6423;BME280;3244;42.708;23.288;2023-03-14T01:40:01;95184.44;;;3.68;57.67
6423;BME280;3244;42.708;23.288;2023-03-14T01:42:29;95184.44;;;3.68;58.34
6423;BME280;3244;42.708;23.288;2023-03-14T01:44:58;95190.31;;;3.64;58.32
6423;BME280;3244;42.708;23.288;2023-03-14T01:47:25;95185.31;;;3.59;59.21
6423;BME280;3244;42.708;23.288;2023-03-14T01:49:55;95170.22;;;3.61;58.94
6423;BME280;3244;42.708;23.288;2023-03-14T01:52:28;95161.84;;;3.59;59.39
6423;BME280;3244;42.708;23.288;2023-03-14T01:54:59;95176.09;;;3.55;59.98
6423;BME280;3244;42.708;23.288;2023-03-14T01:57:33;95174.44;;;3.54;59.38
6423;BME280;3244;42.708;23.288;2023-03-14T02:00:05;95175.28;;;3.55;60.00
6423;BME280;3244;42.708;23.288;2023-03-14T02:02:37;95170.22;;;3.58;60.18
6423;BME280;3244;42.708;23.288;2023-03-14T02:05:05;95163.50;;;3.66;59.87
6423;BME280;3244;42.708;23.288;2023-03-14T02:07:36;95160.97;;;3.69;59.79
6423;BME280;3244;42.708;23.288;2023-03-14T02:10:07;95159.34;;;3.57;60.17
6423;BME280;3244;42.708;23.288;2023-03-14T02:12:36;95164.38;;;3.57;59.80
6423;BME280;3244;42.708;23.288;2023-03-14T02:15:03;95158.50;;;3.57;60.28
6423;BME280;3244;42.708;23.288;2023-03-14T02:17:30;95165.22;;;3.58;60.16
6423;BME280;3244;42.708;23.288;2023-03-14T02:20:13;95159.34;;;3.56;60.53
6423;BME280;3244;42.708;23.288;2023-03-14T02:22:44;95155.25;;;3.38;61.45
6423;BME280;3244;42.708;23.288;2023-03-14T02:25:15;95158.59;;;3.40;61.33
6423;BME280;3244;42.708;23.288;2023-03-14T02:27:44;95151.94;;;3.31;61.67
6423;BME280;3244;42.708;23.288;2023-03-14T02:30:15;95154.44;;;3.33;61.52
6423;BME280;3244;42.708;23.288;2023-03-14T02:32:44;95162.84;;;3.26;61.90
6423;BME280;3244;42.708;23.288;2023-03-14T02:35:15;95166.19;;;3.25;61.72
6423;BME280;3244;42.708;23.288;2023-03-14T02:37:47;95159.56;;;3.10;61.76
6423;BME280;3244;42.708;23.288;2023-03-14T02:40:15;95162.06;;;3.07;61.96
6423;BME280;3244;42.708;23.288;2023-03-14T02:42:43;95160.41;;;3.06;61.83
6423;BME280;3244;42.708;23.288;2023-03-14T02:45:35;95168.78;;;3.02;62.98
6423;BME280;3244;42.708;23.288;2023-03-14T02:48:06;95170.44;;;3.03;62.86
6423;BME280;3244;42.708;23.288;2023-03-14T02:50:34;95168.81;;;2.96;62.89
6423;BME280;3244;42.708;23.288;2023-03-14T02:53:01;95167.16;;;2.90;63.55
6423;BME280;3244;42.708;23.288;2023-03-14T02:55:27;95168.81;;;2.93;63.09
6423;BME280;3244;42.708;23.288;2023-03-14T02:57:55;95173.84;;;2.84;63.00
6423;BME280;3244;42.708;23.288;2023-03-14T03:00:22;95168.84;;;2.82;63.32
6423;BME280;3244;42.708;23.288;2023-03-14T03:02:49;95173.84;;;2.76;63.87
6423;BME280;3244;42.708;23.288;2023-03-14T03:05:16;95170.50;;;2.76;63.74
6423;BME280;3244;42.708;23.288;2023-03-14T03:07:43;95173.84;;;2.81;64.00
6423;BME280;3244;42.708;23.288;2023-03-14T03:10:10;95173.84;;;2.74;63.66
6423;BME280;3244;42.708;23.288;2023-03-14T03:12:37;95173.84;;;2.78;64.25
6423;BME280;3244;42.708;23.288;2023-03-14T03:15:06;95178.06;;;2.71;64.01
6423;BME280;3244;42.708;23.288;2023-03-14T03:17:33;95175.56;;;2.69;64.29
6423;BME280;3244;42.708;23.288;2023-03-14T03:19:59;95176.38;;;2.76;64.48
6423;BME280;3244;42.708;23.288;2023-03-14T03:22:26;95168.84;;;2.81;64.11
6423;BME280;3244;42.708;23.288;2023-03-14T03:24:53;95166.31;;;2.82;63.95
6423;BME280;3244;42.708;23.288;2023-03-14T03:27:19;95169.66;;;2.86;63.63
6423;BME280;3244;42.708;23.288;2023-03-14T03:29:46;95168.81;;;2.90;63.77
6423;BME280;3244;42.708;23.288;2023-03-14T03:32:14;95163.81;;;2.90;63.94
6423;BME280;3244;42.708;23.288;2023-03-14T03:34:41;95168.84;;;2.84;63.26
6423;BME280;3244;42.708;23.288;2023-03-14T03:37:08;95167.16;;;2.77;64.32
6423;BME280;3244;42.708;23.288;2023-03-14T03:39:34;95156.28;;;2.74;63.75
6423;BME280;3244;42.708;23.288;2023-03-14T03:42:01;95161.31;;;2.76;64.16
6423;BME280;3244;42.708;23.288;2023-03-14T03:44:27;95168.03;;;2.71;64.94
6423;BME280;3244;42.708;23.288;2023-03-14T03:46:54;95173.84;;;2.74;63.86
6423;BME280;3244;42.708;23.288;2023-03-14T03:49:22;95176.34;;;2.82;64.72
6423;BME280;3244;42.708;23.288;2023-03-14T03:51:49;95177.19;;;2.83;63.92
6423;BME280;3244;42.708;23.288;2023-03-14T03:54:15;95179.69;;;2.87;64.14
6423;BME280;3244;42.708;23.288;2023-03-14T03:56:42;95178.03;;;2.80;64.37
6423;BME280;3244;42.708;23.288;2023-03-14T03:59:09;95173.84;;;2.84;63.91
6423;BME280;3244;42.708;23.288;2023-03-14T04:01:35;95174.69;;;2.89;63.81
6423;BME280;3244;42.708;23.288;2023-03-14T04:04:02;95175.53;;;2.83;64.41
6423;BME280;3244;42.708;23.288;2023-03-14T04:06:30;95174.69;;;2.86;63.41
6423;BME280;3244;42.708;23.288;2023-03-14T04:08:57;95176.34;;;2.85;63.72
6423;BME280;3244;42.708;23.288;2023-03-14T04:11:23;95173.84;;;2.87;63.49
6423;BME280;3244;42.708;23.288;2023-03-14T04:13:50;95168.81;;;2.90;63.28
6423;BME280;3244;42.708;23.288;2023-03-14T04:16:19;95170.50;;;2.79;64.16
6423;BME280;3244;42.708;23.288;2023-03-14T04:18:46;95167.16;;;2.75;63.50
6423;BME280;3244;42.708;23.288;2023-03-14T04:21:13;95160.50;;;2.66;63.67
6423;BME280;3244;42.708;23.288;2023-03-14T04:23:41;95160.50;;;2.65;63.72
6423;BME280;3244;42.708;23.288;2023-03-14T04:26:08;95155.50;;;2.66;63.60
6423;BME280;3244;42.708;23.288;2023-03-14T04:28:35;95157.16;;;2.64;63.34
6423;BME280;3244;42.708;23.288;2023-03-14T04:31:07;95153.81;;;2.65;63.88
6423;BME280;3244;42.708;23.288;2023-03-14T04:33:33;95143.78;;;2.56;63.21
6423;BME280;3244;42.708;23.288;2023-03-14T04:36:01;95143.78;;;2.53;63.70
6423;BME280;3244;42.708;23.288;2023-03-14T04:38:28;95145.47;;;2.63;63.03
6423;BME280;3244;42.708;23.288;2023-03-14T04:40:56;95134.59;;;2.55;63.01
6423;BME280;3244;42.708;23.288;2023-03-14T04:43:23;95117.91;;;2.47;63.60
6423;BME280;3244;42.708;23.288;2023-03-14T04:45:51;95128.72;;;2.62;63.06
6423;BME280;3244;42.708;23.288;2023-03-14T04:48:17;95125.34;;;2.76;62.32
6423;BME280;3244;42.708;23.288;2023-03-14T04:50:45;95128.72;;;2.71;62.82
6423;BME280;3244;42.708;23.288;2023-03-14T04:53:12;95125.34;;;2.76;62.37
6423;BME280;3244;42.708;23.288;2023-03-14T04:55:39;95122.81;;;2.83;63.31
6423;BME280;3244;42.708;23.288;2023-03-14T04:58:07;95121.13;;;2.93;63.42
6423;BME280;3244;42.708;23.288;2023-03-14T05:00:33;95124.44;;;2.98;62.03
6423;BME280;3244;42.708;23.288;2023-03-14T05:03:00;95123.56;;;3.05;62.05
6423;BME280;3244;42.708;23.288;2023-03-14T05:05:27;95128.56;;;3.17;62.97
6423;BME280;3244;42.708;23.288;2023-03-14T05:07:54;95121.88;;;3.15;62.75
6423;BME280;3244;42.708;23.288;2023-03-14T05:10:20;95118.47;;;3.26;61.83
6423;BME280;3244;42.708;23.288;2023-03-14T05:12:47;95123.44;;;3.38;62.03
6423;BME280;3244;42.708;23.288;2023-03-14T05:15:15;95117.44;;;3.65;61.29
6423;BME280;3244;42.708;23.288;2023-03-14T05:17:41;95111.72;;;5.27;58.61
6423;BME280;3244;42.708;23.288;2023-03-14T05:20:09;95109.63;;;7.54;52.23
6423;BME280;3244;42.708;23.288;2023-03-14T05:22:38;95094.44;;;9.56;47.22
6423;BME280;3244;42.708;23.288;2023-03-14T05:25:06;95077.81;;;11.04;43.46
6423;BME280;3244;42.708;23.288;2023-03-14T05:27:33;95085.66;;;11.91;41.24
6423;BME280;3244;42.708;23.288;2023-03-14T05:29:59;95094.88;;;12.38;40.21
6423;BME280;3244;42.708;23.288;2023-03-14T05:32:27;95084.00;;;13.15;37.71
6423;BME280;3244;42.708;23.288;2023-03-14T05:34:54;95086.56;;;14.45;35.13
6423;BME280;3244;42.708;23.288;2023-03-14T05:37:24;95082.91;;;16.00;32.22
6423;BME280;3244;42.708;23.288;2023-03-14T05:39:50;95078.16;;;17.14;30.14
6423;BME280;3244;42.708;23.288;2023-03-14T05:42:17;95082.38;;;17.86;28.88
6423;BME280;3244;42.708;23.288;2023-03-14T05:44:44;95078.38;;;18.35;28.13
6423;BME280;3244;42.708;23.288;2023-03-14T05:47:10;95081.88;;;18.61;26.96
6423;BME280;3244;42.708;23.288;2023-03-14T05:49:39;95069.06;;;19.37;25.98
6423;BME280;3244;42.708;23.288;2023-03-14T05:52:05;95070.59;;;20.51;24.69
6423;BME280;3244;42.708;23.288;2023-03-14T05:54:32;95072.47;;;21.42;23.62
6423;BME280;3244;42.708;23.288;2023-03-14T05:56:59;95076.78;;;22.19;22.74
6423;BME280;3244;42.708;23.288;2023-03-14T05:59:26;95068.25;;;22.71;22.11
6423;BME280;3244;42.708;23.288;2023-03-14T06:01:52;95070.97;;;22.70;21.51
6423;BME280;3244;42.708;23.288;2023-03-14T06:04:19;95064.44;;;22.55;21.48
6423;BME280;3244;42.708;23.288;2023-03-14T06:06:47;95068.81;;;21.55;22.27
6423;BME280;3244;42.708;23.288;2023-03-14T06:09:13;95068.53;;;20.20;23.34
6423;BME280;3244;42.708;23.288;2023-03-14T06:11:40;95079.00;;;18.66;25.12
6423;BME280;3244;42.708;23.288;2023-03-14T06:14:07;95067.59;;;17.32;26.77
6423;BME280;3244;42.708;23.288;2023-03-14T06:16:34;95083.34;;;16.38;28.30
6423;BME280;3244;42.708;23.288;2023-03-14T06:19:00;95082.88;;;16.16;28.96
6423;BME280;3244;42.708;23.288;2023-03-14T06:21:27;95081.31;;;15.66;29.44
6423;BME280;3244;42.708;23.288;2023-03-14T06:23:55;95093.72;;;15.08;30.67
6423;BME280;3244;42.708;23.288;2023-03-14T06:26:22;95085.72;;;15.47;30.40
6423;BME280;3244;42.708;23.288;2023-03-14T06:28:51;95097.03;;;16.23;29.26
6423;BME280;3244;42.708;23.288;2023-03-14T06:31:19;95088.97;;;16.45;28.72
6423;BME280;3244;42.708;23.288;2023-03-14T06:33:45;95087.19;;;16.31;28.93
6423;BME280;3244;42.708;23.288;2023-03-14T06:36:12;95077.34;;;15.92;29.59
6423;BME280;3244;42.708;23.288;2023-03-14T06:38:39;95067.81;;;16.25;29.43
6423;BME280;3244;42.708;23.288;2023-03-14T06:41:07;95062.91;;;17.11;28.07
6423;BME280;3244;42.708;23.288;2023-03-14T06:43:34;95073.69;;;17.74;27.67
6423;BME280;3244;42.708;23.288;2023-03-14T06:46:01;95070.44;;;19.18;25.52
6423;BME280;3244;42.708;23.288;2023-03-14T06:48:27;95055.38;;;21.17;23.87
6423;BME280;3244;42.708;23.288;2023-03-14T06:50:54;95053.75;;;23.22;21.87
6423;BME280;3244;42.708;23.288;2023-03-14T06:53:21;95038.47;;;25.16;19.63
6423;BME280;3244;42.708;23.288;2023-03-14T06:55:47;95039.94;;;26.65;18.50
6423;BME280;3244;42.708;23.288;2023-03-14T06:58:16;95026.50;;;26.78;18.23
6423;BME280;3244;42.708;23.288;2023-03-14T07:00:43;95021.16;;;26.62;17.84
6423;BME280;3244;42.708;23.288;2023-03-14T07:03:10;95035.63;;;25.84;18.48
6423;BME280;3244;42.708;23.288;2023-03-14T07:05:36;95029.56;;;25.09;19.26
6423;BME280;3244;42.708;23.288;2023-03-14T07:08:05;95029.88;;;24.48;19.49
6423;BME280;3244;42.708;23.288;2023-03-14T07:10:32;95027.38;;;24.27;19.53
6423;BME280;3244;42.708;23.288;2023-03-14T07:12:59;95029.84;;;24.29;19.51
6423;BME280;3244;42.708;23.288;2023-03-14T07:15:27;95033.00;;;23.73;19.68
6423;BME280;3244;42.708;23.288;2023-03-14T07:17:54;95038.13;;;23.12;20.68
6423;BME280;3244;42.708;23.288;2023-03-14T07:20:20;95028.00;;;24.00;20.66
6423;BME280;3244;42.708;23.288;2023-03-14T07:22:49;95025.09;;;25.48;19.27
6423;BME280;3244;42.708;23.288;2023-03-14T07:25:16;95027.81;;;25.84;18.46
6423;BME280;3244;42.708;23.288;2023-03-14T07:27:43;95026.66;;;25.68;18.65
6423;BME280;3244;42.708;23.288;2023-03-14T07:30:11;95020.78;;;25.94;18.45
6423;BME280;3244;42.708;23.288;2023-03-14T07:32:39;95015.88;;;26.71;17.94
6423;BME280;3244;42.708;23.288;2023-03-14T07:35:07;95008.38;;;27.12;17.44
6423;BME280;3244;42.708;23.288;2023-03-14T07:37:34;95010.06;;;27.55;17.05
6423;BME280;3244;42.708;23.288;2023-03-14T07:40:01;94996.03;;;28.73;16.30
6423;BME280;3244;42.708;23.288;2023-03-14T07:42:30;94997.69;;;29.06;15.95
6423;BME280;3244;42.708;23.288;2023-03-14T07:44:57;94998.56;;;29.62;15.14
6423;BME280;3244;42.708;23.288;2023-03-14T07:47:24;94984.81;;;30.30;14.94
6423;BME280;3244;42.708;23.288;2023-03-14T07:49:52;94989.31;;;30.90;14.88
6423;BME280;3244;42.708;23.288;2023-03-14T07:52:18;94988.03;;;30.40;15.08
6423;BME280;3244;42.708;23.288;2023-03-14T07:54:45;94994.41;;;30.15;14.82
6423;BME280;3244;42.708;23.288;2023-03-14T07:57:12;94987.09;;;30.33;14.71
6423;BME280;3244;42.708;23.288;2023-03-14T07:59:38;94989.50;;;31.03;14.53
6423;BME280;3244;42.708;23.288;2023-03-14T08:02:05;94987.31;;;31.30;14.67
6423;BME280;3244;42.708;23.288;2023-03-14T08:04:36;94978.84;;;32.87;13.25
6423;BME280;3244;42.708;23.288;2023-03-14T08:07:04;94975.03;;;33.79;12.88
6423;BME280;3244;42.708;23.288;2023-03-14T08:09:31;94981.25;;;34.13;13.02
6423;BME280;3244;42.708;23.288;2023-03-14T08:11:57;94983.47;;;34.16;12.95
6423;BME280;3244;42.708;23.288;2023-03-14T08:14:24;94977.75;;;35.26;11.96
6423;BME280;3244;42.708;23.288;2023-03-14T08:16:51;94973.25;;;35.46;12.10
6423;BME280;3244;42.708;23.288;2023-03-14T08:19:18;94969.81;;;36.10;11.41
6423;BME280;3244;42.708;23.288;2023-03-14T08:21:44;94970.41;;;35.55;11.91
6423;BME280;3244;42.708;23.288;2023-03-14T08:24:12;94970.81;;;35.58;11.36
6423;BME280;3244;42.708;23.288;2023-03-14T08:26:39;94970.81;;;34.66;11.51
6423;BME280;3244;42.708;23.288;2023-03-14T08:29:06;94973.91;;;33.26;12.00
6423;BME280;3244;42.708;23.288;2023-03-14T08:31:34;94968.31;;;31.42;12.86
6423;BME280;3244;42.708;23.288;2023-03-14T08:34:01;94965.63;;;30.75;13.65
6423;BME280;3244;42.708;23.288;2023-03-14T08:36:28;94956.97;;;29.98;13.98
6423;BME280;3244;42.708;23.288;2023-03-14T08:38:56;94947.44;;;30.05;14.26
6423;BME280;3244;42.708;23.288;2023-03-14T08:41:24;94951.63;;;30.83;12.81
6423;BME280;3244;42.708;23.288;2023-03-14T08:43:51;94951.81;;;30.96;13.35
6423;BME280;3244;42.708;23.288;2023-03-14T08:46:18;94947.03;;;29.86;13.75
6423;BME280;3244;42.708;23.288;2023-03-14T08:48:44;94944.22;;;28.76;14.12
6423;BME280;3244;42.708;23.288;2023-03-14T08:51:13;94940.66;;;28.45;14.54
6423;BME280;3244;42.708;23.288;2023-03-14T08:53:40;94919.03;;;28.19;14.74
6423;BME280;3244;42.708;23.288;2023-03-14T08:56:08;94936.97;;;27.55;15.15
6423;BME280;3244;42.708;23.288;2023-03-14T08:58:37;94919.97;;;26.83;15.93
6423;BME280;3244;42.708;23.288;2023-03-14T09:01:04;94923.75;;;26.89;16.27
6423;BME280;3244;42.708;23.288;2023-03-14T09:03:31;94912.97;;;27.09;15.82
6423;BME280;3244;42.708;23.288;2023-03-14T09:06:02;94920.78;;;25.87;16.05
6423;BME280;3244;42.708;23.288;2023-03-14T09:08:29;94907.78;;;24.19;17.24
6423;BME280;3244;42.708;23.288;2023-03-14T09:10:56;94913.13;;;21.29;19.97
6423;BME280;3244;42.708;23.288;2023-03-14T09:13:23;94903.97;;;20.69;20.85
6423;BME280;3244;42.708;23.288;2023-03-14T09:15:52;94900.44;;;20.59;21.05
6423;BME280;3244;42.708;23.288;2023-03-14T09:18:19;94899.75;;;20.22;21.29
6423;BME280;3244;42.708;23.288;2023-03-14T09:20:46;94901.44;;;17.47;23.98
6423;BME280;3244;42.708;23.288;2023-03-14T09:23:12;94898.22;;;17.17;24.74
6423;BME280;3244;42.708;23.288;2023-03-14T09:25:39;94888.03;;;16.16;25.12
6423;BME280;3244;42.708;23.288;2023-03-14T09:28:06;94893.81;;;14.96;26.56
6423;BME280;3244;42.708;23.288;2023-03-14T09:30:33;94891.03;;;14.52;27.44
6423;BME280;3244;42.708;23.288;2023-03-14T09:33:01;94890.19;;;13.84;28.08
6423;BME280;3244;42.708;23.288;2023-03-14T09:35:27;94888.16;;;13.56;29.25
6423;BME280;3244;42.708;23.288;2023-03-14T09:37:54;94885.88;;;13.50;29.31
6423;BME280;3244;42.708;23.288;2023-03-14T09:40:21;94879.41;;;13.43;29.00
6423;BME280;3244;42.708;23.288;2023-03-14T09:42:51;94869.66;;;13.15;29.47
6423;BME280;3244;42.708;23.288;2023-03-14T09:45:23;94869.53;;;13.00;29.44
6423;BME280;3244;42.708;23.288;2023-03-14T09:47:52;94861.94;;;13.17;29.65
6423;BME280;3244;42.708;23.288;2023-03-14T09:50:20;94849.38;;;13.12;29.69
6423;BME280;3244;42.708;23.288;2023-03-14T09:52:50;94848.28;;;13.18;30.08
6423;BME280;3244;42.708;23.288;2023-03-14T09:55:20;94854.38;;;13.15;30.78
6423;BME280;3244;42.708;23.288;2023-03-14T09:57:49;94849.81;;;13.22;30.16
6423;BME280;3244;42.708;23.288;2023-03-14T10:00:20;94839.16;;;13.31;30.95
6423;BME280;3244;42.708;23.288;2023-03-14T10:02:51;94831.06;;;13.40;30.39
6423;BME280;3244;42.708;23.288;2023-03-14T10:05:22;94822.81;;;13.52;30.74
6423;BME280;3244;42.708;23.288;2023-03-14T10:07:50;94820.16;;;13.88;30.12
6423;BME280;3244;42.708;23.288;2023-03-14T10:10:19;94812.00;;;14.48;28.87
6423;BME280;3244;42.708;23.288;2023-03-14T10:12:48;94809.66;;;14.76;28.67
6423;BME280;3244;42.708;23.288;2023-03-14T10:15:24;94808.78;;;14.60;28.72
6423;BME280;3244;42.708;23.288;2023-03-14T10:17:51;94799.00;;;14.52;28.83
6423;BME280;3244;42.708;23.288;2023-03-14T10:20:32;94780.88;;;14.40;28.17
6423;BME280;3244;42.708;23.288;2023-03-14T10:22:59;94788.88;;;14.34;27.84
6423;BME280;3244;42.708;23.288;2023-03-14T10:25:27;94781.91;;;14.20;28.25
6423;BME280;3244;42.708;23.288;2023-03-14T10:27:54;94778.69;;;14.16;27.79
6423;BME280;3244;42.708;23.288;2023-03-14T10:30:33;94771.47;;;14.24;28.28
6423;BME280;3244;42.708;23.288;2023-03-14T10:33:08;94769.34;;;14.33;29.07
6423;BME280;3244;42.708;23.288;2023-03-14T10:35:36;94758.38;;;14.30;28.12
6423;BME280;3244;42.708;23.288;2023-03-14T10:38:04;94749.84;;;14.14;29.16
6423;BME280;3244;42.708;23.288;2023-03-14T10:40:32;94743.94;;;14.29;28.59
6423;BME280;3244;42.708;23.288;2023-03-14T10:43:00;94731.25;;;14.44;28.72
6423;BME280;3244;42.708;23.288;2023-03-14T10:45:36;94728.38;;;14.50;29.64
6423;BME280;3244;42.708;23.288;2023-03-14T10:48:19;94719.69;;;14.37;29.57
6423;BME280;3244;42.708;23.288;2023-03-14T10:50:55;94712.53;;;14.27;29.61
6423;BME280;3244;42.708;23.288;2023-03-14T10:53:22;94705.22;;;14.53;29.98
6423;BME280;3244;42.708;23.288;2023-03-14T10:55:49;94705.19;;;14.84;30.14
6423;BME280;3244;42.708;23.288;2023-03-14T10:58:20;94693.19;;;15.15;30.14
6423;BME280;3244;42.708;23.288;2023-03-14T11:00:51;94691.72;;;15.11;30.25
6423;BME280;3244;42.708;23.288;2023-03-14T11:03:20;94682.50;;;15.08;30.33
6423;BME280;3244;42.708;23.288;2023-03-14T11:05:53;94679.97;;;15.22;29.93
6423;BME280;3244;42.708;23.288;2023-03-14T11:08:25;94665.28;;;15.54;30.05
6423;BME280;3244;42.708;23.288;2023-03-14T11:10:57;94662.47;;;15.87;30.20
6423;BME280;3244;42.708;23.288;2023-03-14T11:13:33;94650.84;;;15.96;29.61
6423;BME280;3244;42.708;23.288;2023-03-14T11:16:06;94650.28;;;15.62;30.52
6423;BME280;3244;42.708;23.288;2023-03-14T11:19:03;94639.53;;;15.57;31.14
6423;BME280;3244;42.708;23.288;2023-03-14T11:21:42;94636.28;;;15.40;31.14
6423;BME280;3244;42.708;23.288;2023-03-14T11:24:25;94626.28;;;15.07;31.68
6423;BME280;3244;42.708;23.288;2023-03-14T11:26:59;94622.25;;;15.03;31.63
6423;BME280;3244;42.708;23.288;2023-03-14T11:29:37;94617.00;;;14.90;31.81
6423;BME280;3244;42.708;23.288;2023-03-14T11:32:12;94619.38;;;14.79;32.27
6423;BME280;3244;42.708;23.288;2023-03-14T11:34:45;94601.81;;;14.87;32.44
6423;BME280;3244;42.708;23.288;2023-03-14T11:37:22;94597.66;;;15.00;32.05
6423;BME280;3244;42.708;23.288;2023-03-14T11:39:56;94595.19;;;15.13;31.98
6423;BME280;3244;42.708;23.288;2023-03-14T11:42:26;94575.47;;;15.29;32.05
6423;BME280;3244;42.708;23.288;2023-03-14T11:44:54;94576.47;;;15.26;31.60
6423;BME280;3244;42.708;23.288;2023-03-14T11:47:25;94578.84;;;15.44;31.80
6423;BME280;3244;42.708;23.288;2023-03-14T11:49:58;94574.00;;;15.68;31.36
6423;BME280;3244;42.708;23.288;2023-03-14T11:52:31;94560.47;;;15.65;31.07
6423;BME280;3244;42.708;23.288;2023-03-14T11:55:04;94571.63;;;15.64;31.18
6423;BME280;3244;42.708;23.288;2023-03-14T11:57:32;94563.94;;;15.64;30.90
6423;BME280;3244;42.708;23.288;2023-03-14T12:00:04;94567.41;;;15.63;31.04
6423;BME280;3244;42.708;23.288;2023-03-14T12:02:45;94555.25;;;15.53;31.30
6423;BME280;3244;42.708;23.288;2023-03-14T12:08:29;94541.28;;;15.58;30.58
6423;BME280;3244;42.708;23.288;2023-03-14T12:11:02;94529.75;;;15.37;30.86
6423;BME280;3244;42.708;23.288;2023-03-14T12:13:33;94531.50;;;15.22;31.11
6423;BME280;3244;42.708;23.288;2023-03-14T12:16:04;94507.75;;;15.06;31.42
6423;BME280;3244;42.708;23.288;2023-03-14T12:18:33;94515.94;;;15.11;31.95
6423;BME280;3244;42.708;23.288;2023-03-14T12:21:05;94501.25;;;15.29;31.33
6423;BME280;3244;42.708;23.288;2023-03-14T12:23:37;94496.25;;;15.54;31.31
6423;BME280;3244;42.708;23.288;2023-03-14T12:26:13;94500.75;;;15.92;30.96
6423;BME280;3244;42.708;23.288;2023-03-14T12:28:44;94498.97;;;15.80;30.49
6423;BME280;3244;42.708;23.288;2023-03-14T12:31:36;94491.03;;;15.70;30.61
6423;BME280;3244;42.708;23.288;2023-03-14T12:34:10;94478.13;;;15.72;30.64
6423;BME280;3244;42.708;23.288;2023-03-14T12:37:10;94473.84;;;15.85;30.54
6423;BME280;3244;42.708;23.288;2023-03-14T12:39:47;94472.63;;;15.78;30.66
6423;BME280;3244;42.708;23.288;2023-03-14T12:42:21;94468.16;;;15.94;29.90
6423;BME280;3244;42.708;23.288;2023-03-14T12:45:21;94460.03;;;15.87;30.03
6423;BME280;3244;42.708;23.288;2023-03-14T12:48:09;94448.09;;;16.01;29.75
6423;BME280;3244;42.708;23.288;2023-03-14T12:50:44;94444.00;;;16.11;29.53
6423;BME280;3244;42.708;23.288;2023-03-14T12:53:44;94439.50;;;16.14;29.18
6423;BME280;3244;42.708;23.288;2023-03-14T12:56:28;94442.00;;;16.28;29.11
6423;BME280;3244;42.708;23.288;2023-03-14T12:59:27;94428.84;;;16.20;28.96
6423;BME280;3244;42.708;23.288;2023-03-14T13:01:56;94417.69;;;16.21;29.23
6423;BME280;3244;42.708;23.288;2023-03-14T13:04:28;94419.66;;;16.30;28.90
6423;BME280;3244;42.708;23.288;2023-03-14T13:06:57;94414.81;;;16.26;28.96
6423;BME280;3244;42.708;23.288;2023-03-14T13:09:45;94415.53;;;16.41;28.54
6423;BME280;3244;42.708;23.288;2023-03-14T13:12:18;94413.50;;;16.33;29.09
6423;BME280;3244;42.708;23.288;2023-03-14T13:14:46;94412.06;;;16.29;29.07
6423;BME280;3244;42.708;23.288;2023-03-14T13:17:19;94403.44;;;16.43;29.00
6423;BME280;3244;42.708;23.288;2023-03-14T13:19:50;94390.09;;;16.50;28.78
6423;BME280;3244;42.708;23.288;2023-03-14T13:22:22;94392.56;;;16.52;28.74
6423;BME280;3244;42.708;23.288;2023-03-14T13:24:50;94384.47;;;16.45;28.88
6423;BME280;3244;42.708;23.288;2023-03-14T13:27:19;94377.59;;;16.46;29.00
6423;BME280;3244;42.708;23.288;2023-03-14T13:29:50;94372.78;;;16.54;28.65